Time;durP1;ratioP1;P1;durP2;ratioP2;P2;SDS_P1;SDS_P2;PMS_P1;PMS_P2;Temp;Humidity;BMP_temperature;BMP_pressure;BME280_temperature;BME280_humidity;BME280_pressure;Samples;Min_cycle;Max_cycle;Signal;HPM_P1;HPM_P2
2022/09/01 00:02:28;;;;;;;13.88;9.02;;;563.80;2432.00;;;;;;5069498;28;20521;-74
2022/09/01 00:04:58;;;;;;;11.75;9.00;;;563.80;2432.00;;;;;;5073979;28;20025;-76
2022/09/01 00:07:31;;;;;;;10.55;8.52;;;563.90;2432.00;;;;;;5065727;28;20025;-75
2022/09/01 00:09:58;;;;;;;11.27;8.38;;;563.80;2432.00;;;;;;5069638;28;20070;-78
2022/09/01 00:12:24;;;;;;;10.10;8.15;;;563.80;2432.00;;;;;;5073749;28;20021;-77
2022/09/01 00:14:51;;;;;;;13.35;8.57;;;563.80;2432.00;;;;;;5071260;28;20031;-78
2022/09/01 00:17:17;;;;;;;12.77;8.60;;;563.80;2432.00;;;;;;5097442;28;20111;-74
2022/09/01 00:19:43;;;;;;;12.27;8.00;;;563.90;2432.00;;;;;;5078460;28;20484;-78
2022/09/01 00:22:09;;;;;;;11.35;8.98;;;564.00;2432.00;;;;;;5071061;28;20016;-76
2022/09/01 00:24:35;;;;;;;11.18;8.55;;;563.80;2432.00;;;;;;5073890;28;20020;-75
2022/09/01 00:27:00;;;;;;;12.38;8.50;;;563.80;2432.00;;;;;;5068439;28;20089;-73
2022/09/01 00:29:26;;;;;;;9.00;8.07;;;563.90;2432.00;;;;;;5070760;28;20521;-73
2022/09/01 00:31:53;;;;;;;13.43;8.75;;;564.00;2432.00;;;;;;5069880;28;20489;-77
2022/09/01 00:34:19;;;;;;;12.90;9.13;;;564.10;2432.00;;;;;;5070862;28;20086;-75
2022/09/01 00:36:45;;;;;;;12.73;8.82;;;564.00;2432.00;;;;;;5071118;28;20098;-77
2022/09/01 00:39:10;;;;;;;12.60;8.65;;;563.90;2432.00;;;;;;5070750;28;20058;-74
2022/09/01 00:41:38;;;;;;;10.40;9.07;;;563.90;2432.00;;;;;;5070944;28;20513;-74
2022/09/01 00:44:08;;;;;;;19.42;9.43;;;564.00;2432.00;;;;;;5070589;28;20478;-73
2022/09/01 00:46:41;;;;;;;10.02;7.85;;;563.90;2432.00;;;;;;5070820;28;20398;-74
2022/09/01 00:49:10;;;;;;;11.63;9.70;;;563.70;2432.00;;;;;;5082529;28;20025;-75
2022/09/01 00:51:39;;;;;;;12.57;9.32;;;563.70;2432.00;;;;;;5073478;28;20358;-77
2022/09/01 00:54:10;;;;;;;17.90;10.27;;;563.70;2432.00;;;;;;5068676;28;20016;-75
2022/09/01 00:56:39;;;;;;;13.02;9.48;;;563.70;2432.00;;;;;;5073586;28;20024;-77
2022/09/01 00:59:08;;;;;;;9.30;8.05;;;563.70;2432.00;;;;;;5068467;28;20021;-76
2022/09/01 01:01:35;;;;;;;15.32;10.15;;;563.80;2432.00;;;;;;5070670;28;20013;-73
2022/09/01 01:04:05;;;;;;;11.68;8.85;;;563.80;2432.00;;;;;;5070560;28;20040;-74
2022/09/01 01:06:32;;;;;;;11.88;9.57;;;563.60;2432.00;;;;;;5073608;28;20021;-77
2022/09/01 01:08:59;;;;;;;12.35;8.98;;;563.60;2432.00;;;;;;5070737;28;20029;-77
2022/09/01 01:11:31;;;;;;;15.02;10.75;;;563.60;2432.00;;;;;;5071098;28;20100;-74
2022/09/01 01:14:11;;;;;;;15.95;9.95;;;563.60;2432.00;;;;;;5072251;28;20492;-76
2022/09/01 01:16:45;;;;;;;12.07;10.20;;;563.60;2432.00;;;;;;5078489;28;20127;-75
2022/09/01 01:23:01;;;;;;;14.57;9.95;;;563.50;2432.00;;;;;;5076864;28;21011;-76
2022/09/01 01:25:55;;;;;;;12.32;9.07;;;563.50;2432.00;;;;;;5071991;28;20023;-74
2022/09/01 01:28:26;;;;;;;11.50;9.27;;;563.70;2432.00;;;;;;5075538;28;20093;-77
2022/09/01 01:30:56;;;;;;;10.25;8.60;;;563.80;2432.00;;;;;;5073820;28;20020;-76
2022/09/01 01:33:28;;;;;;;12.40;9.13;;;563.90;2432.00;;;;;;5073907;28;20028;-76
2022/09/01 01:35:56;;;;;;;17.15;10.43;;;563.70;2432.00;;;;;;5072593;28;20496;-77
2022/09/01 01:38:23;;;;;;;17.25;9.88;;;563.60;2432.00;;;;;;5073815;28;20028;-77
2022/09/01 01:40:50;;;;;;;13.52;9.60;;;563.50;2432.00;;;;;;5073625;28;20095;-76
2022/09/01 01:43:21;;;;;;;15.75;9.73;;;563.60;2432.00;;;;;;5074108;28;20043;-73
2022/09/01 01:45:50;;;;;;;11.07;8.52;;;563.90;2432.00;;;;;;5072243;28;20024;-72
2022/09/01 01:48:21;;;;;;;12.25;9.88;;;563.80;2432.00;;;;;;5076227;28;20393;-75
2022/09/01 01:50:48;;;;;;;12.48;10.25;;;563.60;2432.00;;;;;;5074081;28;20020;-74
2022/09/01 01:53:18;;;;;;;15.85;9.98;;;563.50;2432.00;;;;;;5076230;28;20027;-73
2022/09/01 01:55:48;;;;;;;13.13;9.82;;;563.50;2432.00;;;;;;5073592;28;20013;-76
2022/09/01 01:58:14;;;;;;;12.50;9.80;;;563.50;2432.00;;;;;;5073499;28;20060;-77
2022/09/01 02:00:43;;;;;;;10.68;9.18;;;563.50;2432.00;;;;;;5073237;28;20016;-74
2022/09/01 02:03:11;;;;;;;15.27;10.10;;;563.40;2432.00;;;;;;5067834;28;20021;-74
2022/09/01 02:05:38;;;;;;;12.35;9.23;;;563.40;2432.00;;;;;;5073204;28;20376;-77
2022/09/01 02:08:08;;;;;;;11.68;9.55;;;563.30;2432.00;;;;;;5073070;28;20097;-74
2022/09/01 02:10:40;;;;;;;11.90;8.65;;;563.30;2432.00;;;;;;5075916;28;20024;-75
2022/09/01 02:13:10;;;;;;;10.93;9.35;;;563.40;2432.00;;;;;;5073245;28;20066;-77
2022/09/01 02:15:43;;;;;;;15.60;9.57;;;563.50;2432.00;;;;;;5072769;28;20028;-77
2022/09/01 02:18:25;;;;;;;15.02;9.93;;;563.50;2432.00;;;;;;5071768;28;20104;-73
2022/09/01 02:20:51;;;;;;;12.25;9.35;;;563.50;2432.00;;;;;;5068803;28;20029;-73
2022/09/01 02:23:22;;;;;;;13.00;9.73;;;563.50;2432.00;;;;;;5072966;28;20134;-76
2022/09/01 02:25:50;;;;;;;12.05;9.68;;;563.40;2432.00;;;;;;5073132;28;20024;-77
2022/09/01 02:28:17;;;;;;;13.50;9.65;;;563.50;2432.00;;;;;;5073072;28;20021;-78
2022/09/01 02:30:50;;;;;;;12.35;9.20;;;563.40;2432.00;;;;;;5072746;28;20099;-73
2022/09/01 02:33:18;;;;;;;12.82;9.93;;;563.50;2432.00;;;;;;5071216;28;20551;-73
2022/09/01 02:35:46;;;;;;;10.88;9.50;;;563.40;2432.00;;;;;;5075480;28;20079;-75
2022/09/01 02:38:12;;;;;;;14.05;9.77;;;563.40;2432.00;;;;;;5072795;28;20012;-76
2022/09/01 02:40:43;;;;;;;14.75;10.68;;;563.50;2432.00;;;;;;5072522;28;20059;-77
2022/09/01 02:43:10;;;;;;;14.15;9.82;;;563.40;2432.00;;;;;;5069905;28;20466;-77
2022/09/01 02:45:38;;;;;;;12.20;9.55;;;563.30;2432.00;;;;;;5075196;28;20036;-73
2022/09/01 02:48:09;;;;;;;13.15;9.82;;;563.30;2432.00;;;;;;5071008;28;20401;-73
2022/09/01 02:50:36;;;;;;;13.75;9.82;;;563.40;2432.00;;;;;;5074578;28;20373;-75
2022/09/01 02:53:05;;;;;;;13.15;10.85;;;563.40;2432.00;;;;;;5072481;28;20044;-74
2022/09/01 02:55:31;;;;;;;10.60;9.25;;;563.50;2432.00;;;;;;5068907;28;20017;-73
2022/09/01 02:57:57;;;;;;;12.18;9.57;;;563.40;2432.00;;;;;;5096192;28;20086;-76
2022/09/01 03:00:30;;;;;;;14.35;10.52;;;563.40;2432.00;;;;;;5073699;28;20032;-77
2022/09/01 03:02:59;;;;;;;16.08;10.73;;;563.30;2432.00;;;;;;5070603;28;20024;-73
2022/09/01 03:05:28;;;;;;;14.52;10.50;;;563.30;2432.00;;;;;;5070641;28;20062;-77
2022/09/01 03:07:58;;;;;;;15.45;10.07;;;563.40;2432.00;;;;;;5073801;28;20119;-75
2022/09/01 03:10:31;;;;;;;13.13;9.73;;;563.50;2432.00;;;;;;5095986;28;20458;-75
2022/09/01 03:13:19;;;;;;;13.00;9.80;;;563.50;2432.00;;;;;;5073347;28;20024;-77
2022/09/01 03:15:45;;;;;;;13.80;9.88;;;563.50;2432.00;;;;;;5071091;28;20036;-73
2022/09/01 03:18:12;;;;;;;14.30;9.52;;;563.50;2432.00;;;;;;5071898;28;20503;-75
2022/09/01 03:20:45;;;;;;;13.48;10.35;;;563.60;2432.00;;;;;;5071971;28;20066;-76
2022/09/01 03:23:14;;;;;;;12.02;8.82;;;563.60;2432.00;;;;;;5069174;28;20031;-77
2022/09/01 03:25:44;;;;;;;12.43;9.90;;;563.70;2432.00;;;;;;5074369;28;20025;-74
2022/09/01 03:28:12;;;;;;;12.63;9.93;;;563.70;2432.00;;;;;;5069808;28;20046;-73
2022/09/01 03:30:43;;;;;;;12.40;10.00;;;563.80;2432.00;;;;;;5073246;28;20081;-76
2022/09/01 03:33:09;;;;;;;14.25;9.75;;;563.90;2432.00;;;;;;5071798;28;20017;-73
2022/09/01 03:35:35;;;;;;;11.55;9.20;;;563.80;2432.00;;;;;;5069561;28;20032;-73
2022/09/01 03:38:02;;;;;;;15.07;9.68;;;563.80;2432.00;;;;;;5074434;28;20492;-73
2022/09/01 03:40:31;;;;;;;14.38;9.63;;;563.90;2432.00;;;;;;5077114;28;20021;-76
2022/09/01 03:43:05;;;;;;;11.52;8.98;;;563.90;2432.00;;;;;;5073658;28;20370;-75
2022/09/01 03:45:37;;;;;;;17.80;10.23;;;563.90;2432.00;;;;;;5068576;28;20147;-72
2022/09/01 03:48:07;;;;;;;14.02;10.00;;;564.00;2432.00;;;;;;5072360;28;20123;-73
2022/09/01 03:50:41;;;;;;;17.02;9.88;;;564.00;2432.00;;;;;;5095517;28;20441;-72
2022/09/01 03:53:07;;;;;;;18.27;10.48;;;564.00;2432.00;;;;;;5080950;28;20018;-73
2022/09/01 03:55:34;;;;;;;14.90;10.73;;;563.80;2432.00;;;;;;5091026;28;20127;-72
2022/09/01 03:58:05;;;;;;;17.30;11.45;;;563.80;2432.00;;;;;;5092370;28;20024;-73
2022/09/01 04:00:41;;;;;;;13.00;10.88;;;563.90;2432.00;;;;;;5075247;28;20013;-72
2022/09/01 04:03:09;;;;;;;11.30;9.15;;;564.00;2432.00;;;;;;5067401;28;20036;-73
2022/09/01 04:05:36;;;;;;;12.95;9.70;;;564.00;2432.00;;;;;;5071191;28;20027;-75
2022/09/01 04:08:05;;;;;;;15.55;10.82;;;564.00;2432.00;;;;;;5071791;28;20381;-73
2022/09/01 04:10:33;;;;;;;18.05;11.57;;;564.00;2432.00;;;;;;5072914;28;20016;-72
2022/09/01 04:13:00;;;;;;;13.50;11.52;;;563.80;2432.00;;;;;;5073888;28;20469;-72
2022/09/01 04:15:27;;;;;;;13.95;11.30;;;563.60;2432.00;;;;;;5071321;28;20021;-72
2022/09/01 04:18:09;;;;;;;16.38;11.00;;;563.70;2432.00;;;;;;5078821;28;20081;-73
2022/09/01 04:20:49;;;;;;;18.98;11.27;;;563.70;2432.00;;;;;;5071123;28;20020;-73
2022/09/01 04:23:25;;;;;;;13.40;11.38;;;563.70;2432.00;;;;;;5071075;28;20027;-74
2022/09/01 04:26:07;;;;;;;13.25;10.35;;;563.60;2432.00;;;;;;5070923;28;20090;-76
2022/09/01 04:28:36;;;;;;;17.17;10.77;;;563.70;2432.00;;;;;;5084306;28;20048;-74
2022/09/01 04:31:06;;;;;;;12.05;10.73;;;563.80;2432.00;;;;;;5079975;28;20489;-73
2022/09/01 04:33:43;;;;;;;14.85;11.02;;;563.80;2432.00;;;;;;5091744;28;20099;-74
2022/09/01 04:36:29;;;;;;;14.32;10.55;;;563.90;2432.00;;;;;;5092152;28;20016;-74
2022/09/01 04:39:00;;;;;;;16.52;11.15;;;563.80;2432.00;;;;;;5091596;28;20477;-74
2022/09/01 04:41:29;;;;;;;16.88;11.07;;;563.90;2432.00;;;;;;5091539;28;20040;-74
2022/09/01 04:43:57;;;;;;;16.38;11.30;;;564.00;2432.00;;;;;;5090514;28;20473;-74
2022/09/01 04:46:27;;;;;;;19.10;13.63;;;564.00;2432.00;;;;;;5090086;28;20040;-74
2022/09/01 04:48:53;;;;;;;15.93;11.65;;;564.00;2432.00;;;;;;5092044;28;20031;-72
2022/09/01 04:51:21;;;;;;;16.10;11.48;;;564.00;2432.00;;;;;;5095574;28;20020;-72
2022/09/01 04:53:49;;;;;;;12.43;11.15;;;564.10;2432.00;;;;;;5095740;28;20024;-74
2022/09/01 04:56:21;;;;;;;17.45;12.10;;;564.00;2432.00;;;;;;5094422;28;20148;-75
2022/09/01 04:58:49;;;;;;;14.57;11.10;;;564.00;2432.00;;;;;;5094171;28;20392;-79
2022/09/01 05:01:24;;;;;;;12.25;9.07;;;563.90;2432.00;;;;;;5094265;28;20020;-73
2022/09/01 05:03:58;;;;;;;10.88;7.75;;;564.00;2432.00;;;;;;5093306;28;20111;-73
2022/09/01 05:06:24;;;;;;;11.20;5.95;;;564.00;2432.00;;;;;;5095444;28;20050;-72
2022/09/01 05:08:50;;;;;;;9.93;5.13;;;563.90;2432.00;;;;;;5095240;28;20054;-72
2022/09/01 05:11:16;;;;;;;12.02;6.45;;;563.80;2432.00;;;;;;5093686;28;20477;-73
2022/09/01 05:13:48;;;;;;;20.48;5.35;;;563.80;2432.00;;;;;;5094047;28;20098;-72
2022/09/01 05:16:20;;;;;;;7.30;4.78;;;563.70;2432.00;;;;;;5094629;28;20425;-78
2022/09/01 05:18:48;;;;;;;6.13;4.40;;;563.70;2432.00;;;;;;5095422;28;20027;-73
2022/09/01 05:21:16;;;;;;;9.98;4.45;;;563.70;2432.00;;;;;;5093635;28;20361;-71
2022/09/01 05:23:44;;;;;;;8.05;4.63;;;563.60;2432.00;;;;;;5095122;28;20487;-73
2022/09/01 05:26:16;;;;;;;5.85;3.40;;;563.70;2432.00;;;;;;5094719;28;20090;-73
2022/09/01 05:28:44;;;;;;;5.03;3.67;;;563.70;2432.00;;;;;;5094981;28;20016;-73
2022/09/01 05:31:11;;;;;;;7.57;4.18;;;563.70;2432.00;;;;;;5094836;28;20103;-73
2022/09/01 05:33:43;;;;;;;8.30;3.80;;;563.60;2432.00;;;;;;5093703;28;20020;-73
2022/09/01 05:36:10;;;;;;;7.70;3.38;;;563.60;2432.00;;;;;;5094782;28;20020;-73
2022/09/01 05:38:36;;;;;;;9.80;3.67;;;563.60;2432.00;;;;;;5094844;28;20473;-72
2022/09/01 05:41:05;;;;;;;16.33;3.20;;;563.60;2432.00;;;;;;5095088;28;20074;-74
2022/09/01 05:43:32;;;;;;;11.18;3.65;;;563.70;2432.00;;;;;;5093342;28;20016;-73
2022/09/01 05:45:59;;;;;;;11.32;3.30;;;563.80;2432.00;;;;;;5094190;28;20040;-75
2022/09/01 05:48:30;;;;;;;5.75;3.67;;;563.70;2432.00;;;;;;5094574;28;20099;-72
2022/09/01 05:50:58;;;;;;;6.03;3.05;;;563.70;2432.00;;;;;;5094394;28;20024;-73
2022/09/01 05:53:27;;;;;;;6.65;3.17;;;563.90;2432.00;;;;;;5094505;28;20055;-75
2022/09/01 05:55:55;;;;;;;6.25;3.20;;;563.90;2432.00;;;;;;5094320;28;20028;-73
2022/09/01 05:58:26;;;;;;;5.93;2.83;;;564.00;2432.00;;;;;;5092871;28;20089;-73
2022/09/01 06:00:57;;;;;;;7.55;2.97;;;564.00;2432.00;;;;;;5093077;28;20116;-73
2022/09/01 06:03:23;;;;;;;6.90;2.92;;;564.00;2432.00;;;;;;5094096;28;20077;-73
2022/09/01 06:05:51;;;;;;;3.97;2.63;;;563.80;2432.00;;;;;;5094422;28;20022;-74
2022/09/01 06:08:20;;;;;;;8.52;3.17;;;563.90;2432.00;;;;;;5094143;28;20382;-75
2022/09/01 06:10:47;;;;;;;14.02;2.97;;;563.90;2432.00;;;;;;5088737;28;20020;-78
2022/09/01 06:13:14;;;;;;;5.30;2.33;;;563.90;2432.00;;;;;;5084605;28;20024;-73
2022/09/01 06:15:41;;;;;;;5.57;2.95;;;563.80;2432.00;;;;;;5094008;28;20031;-77
2022/09/01 06:18:10;;;;;;;8.63;2.72;;;563.70;2432.00;;;;;;5093862;28;20027;-72
2022/09/01 06:20:42;;;;;;;6.60;3.30;;;563.80;2432.00;;;;;;5093996;28;20020;-73
2022/09/01 06:23:08;;;;;;;9.85;3.20;;;563.60;2432.00;;;;;;5092928;28;20021;-78
2022/09/01 06:25:38;;;;;;;11.20;3.20;;;563.60;2432.00;;;;;;5093869;28;20031;-76
2022/09/01 06:28:04;;;;;;;11.63;3.45;;;563.50;2432.00;;;;;;5092641;28;20043;-78
2022/09/01 06:30:31;;;;;;;8.13;2.63;;;563.50;2432.00;;;;;;5093752;28;20031;-73
2022/09/01 06:33:00;;;;;;;7.82;2.60;;;563.40;2432.00;;;;;;5093658;28;20107;-77
2022/09/01 06:35:28;;;;;;;4.40;2.30;;;563.40;2432.00;;;;;;5093813;28;20164;-77
2022/09/01 06:37:55;;;;;;;21.92;3.17;;;563.40;2432.00;;;;;;5093734;28;20024;-75
2022/09/01 06:40:24;;;;;;;11.18;3.20;;;563.30;2432.00;;;;;;5092595;28;20028;-73
2022/09/01 06:42:51;;;;;;;5.10;2.55;;;563.50;2432.00;;;;;;5093624;28;20107;-78
2022/09/01 06:45:21;;;;;;;6.25;2.20;;;563.30;2432.00;;;;;;5093617;28;20039;-78
2022/09/01 06:47:49;;;;;;;11.98;3.05;;;563.20;2432.00;;;;;;5093387;28;20499;-76
2022/09/01 06:50:18;;;;;;;5.35;2.45;;;563.20;2432.00;;;;;;5093646;28;20020;-76
2022/09/01 06:52:45;;;;;;;10.30;4.07;;;538.50;2406.40;;;;;;5093333;28;20032;-75
2022/09/01 06:55:13;;;;;;;7.88;3.40;;;538.40;2406.40;;;;;;5093343;28;20039;-72
2022/09/01 06:57:40;;;;;;;9.30;3.35;;;538.50;2406.40;;;;;;5093542;28;20024;-74
2022/09/01 07:00:19;;;;;;;10.57;3.30;;;538.40;2406.40;;;;;;5091778;28;20032;-75
2022/09/01 07:02:52;;;;;;;7.05;2.45;;;538.40;2406.40;;;;;;5093267;28;20020;-72
2022/09/01 07:05:20;;;;;;;6.45;2.38;;;538.50;2406.40;;;;;;5092911;28;20016;-73
2022/09/01 07:07:51;;;;;;;8.73;2.80;;;538.50;2406.40;;;;;;5091688;28;20036;-75
2022/09/01 07:10:22;;;;;;;4.95;2.42;;;563.30;2432.00;;;;;;5093073;28;20053;-72
2022/09/01 07:12:54;;;;;;;4.47;2.67;;;538.50;2406.40;;;;;;5092256;28;20024;-72
2022/09/01 07:15:21;;;;;;;4.38;2.75;;;538.50;2406.40;;;;;;5092815;28;20028;-72
2022/09/01 07:17:53;;;;;;;10.90;4.15;;;538.40;2406.40;;;;;;5092479;28;20078;-72
2022/09/01 07:20:20;;;;;;;20.60;5.47;;;538.20;2406.40;;;;;;5092915;28;20382;-73
2022/09/01 07:22:47;;;;;;;14.27;5.78;;;538.10;2406.40;;;;;;5092809;28;20102;-73
2022/09/01 07:25:14;;;;;;;18.48;4.80;;;537.80;2406.40;;;;;;5092574;28;20016;-73
2022/09/01 07:27:44;;;;;;;20.63;5.55;;;512.80;2380.80;;;;;;5092687;28;20036;-73
2022/09/01 07:30:10;;;;;;;17.65;5.10;;;512.60;2380.80;;;;;;5091330;28;20024;-73
2022/09/01 07:32:38;;;;;;;9.50;4.40;;;512.40;2380.80;;;;;;5092620;28;20111;-76
2022/09/01 07:35:04;;;;;;;9.27;3.60;;;512.30;2380.80;;;;;;5092312;28;20052;-75
2022/09/01 07:37:33;;;;;;;11.48;3.50;;;512.60;2380.80;;;;;;5092650;28;20027;-72
2022/09/01 07:39:59;;;;;;;14.60;3.88;;;512.20;2380.80;;;;;;5092176;28;20416;-74
2022/09/01 07:42:25;;;;;;;7.90;3.97;;;512.10;2380.80;;;;;;5092451;28;20070;-74
2022/09/01 07:44:51;;;;;;;17.60;4.43;;;512.10;2380.80;;;;;;5092459;28;20028;-74
2022/09/01 07:47:17;;;;;;;17.00;3.92;;;487.30;2380.80;;;;;;5091859;28;20047;-75
2022/09/01 07:49:43;;;;;;;7.47;3.05;;;487.30;2380.80;;;;;;5092457;28;20020;-73
2022/09/01 07:52:09;;;;;;;14.15;3.70;;;487.30;2380.80;;;;;;5084391;28;20031;-73
2022/09/01 07:54:36;;;;;;;10.57;2.92;;;487.10;2380.80;;;;;;5074280;28;20095;-74
2022/09/01 07:57:03;;;;;;;7.88;3.42;;;486.90;2380.80;;;;;;5068446;28;20024;-76
2022/09/01 07:59:29;;;;;;;9.65;3.35;;;486.90;2380.80;;;;;;5073456;28;20060;-72
2022/09/01 08:01:56;;;;;;;8.55;3.33;;;486.80;2380.80;;;;;;5071484;28;20028;-72
2022/09/01 08:04:22;;;;;;;5.05;2.40;;;486.80;2380.80;;;;;;5072055;28;20366;-75
2022/09/01 08:06:48;;;;;;;10.57;3.58;;;487.00;2380.80;;;;;;5072647;28;20029;-72
2022/09/01 08:09:14;;;;;;;12.57;3.10;;;486.80;2380.80;;;;;;5079534;28;20028;-74
2022/09/01 08:11:41;;;;;;;8.70;2.30;;;486.80;2380.80;;;;;;5072342;28;20051;-74
2022/09/01 08:14:07;;;;;;;6.97;3.10;;;486.80;2380.80;;;;;;5073857;28;20142;-73
2022/09/01 08:16:32;;;;;;;17.10;3.63;;;486.80;2380.80;;;;;;5070952;28;20131;-74
2022/09/01 08:18:58;;;;;;;9.30;2.97;;;486.90;2380.80;;;;;;5075160;28;20073;-74
2022/09/01 08:21:25;;;;;;;7.78;3.30;;;487.00;2380.80;;;;;;5071209;28;20021;-74
2022/09/01 08:23:53;;;;;;;7.70;3.42;;;487.10;2380.80;;;;;;5074222;28;20024;-74
2022/09/01 08:26:23;;;;;;;5.40;2.85;;;487.00;2380.80;;;;;;5075440;28;20040;-74
2022/09/01 08:28:49;;;;;;;8.02;3.38;;;487.00;2380.80;;;;;;5091959;28;20028;-74
2022/09/01 08:31:18;;;;;;;8.30;3.08;;;487.00;2380.80;;;;;;5076221;28;20473;-73
2022/09/01 08:33:46;;;;;;;8.80;2.90;;;487.10;2380.80;;;;;;5075182;28;20099;-72
2022/09/01 08:36:14;;;;;;;12.05;3.88;;;487.20;2380.80;;;;;;5071593;28;20021;-73
2022/09/01 08:38:41;;;;;;;9.50;3.55;;;487.20;2380.80;;;;;;5073875;28;20052;-73
2022/09/01 08:41:16;;;;;;;8.82;4.30;;;487.30;2380.80;;;;;;5073350;28;20021;-73
2022/09/01 08:44:02;;;;;;;10.57;4.13;;;512.00;2380.80;;;;;;5079450;28;20021;-73
2022/09/01 08:46:36;;;;;;;7.80;3.03;;;512.20;2380.80;;;;;;5074261;28;20037;-76
2022/09/01 08:49:20;;;;;;;6.70;3.58;;;512.00;2380.80;;;;;;5074551;28;20021;-73
2022/09/01 08:51:49;;;;;;;9.68;4.32;;;512.10;2380.80;;;;;;5086514;28;20389;-73
2022/09/01 08:54:45;;;;;;;8.18;3.95;;;512.10;2380.80;;;;;;5097460;28;20024;-78
2022/09/01 08:57:26;;;;;;;9.10;3.88;;;512.00;2380.80;;;;;;5094142;28;20111;-73
2022/09/01 08:59:52;;;;;;;6.10;3.35;;;512.20;2380.80;;;;;;5095329;28;20501;-77
2022/09/01 09:02:39;;;;;;;18.27;4.10;;;512.10;2380.80;;;;;;5093039;28;20078;-73
2022/09/01 09:05:24;;;;;;;;;;;512.00;2380.80;;;;;;5086052;28;20028;-73
2022/09/01 09:08:08;;;;;;;10.23;4.15;;;512.20;2380.80;;;;;;5093554;28;19916;-77
2022/09/01 09:10:49;;;;;;;9.13;3.83;;;512.30;2380.80;;;;;;5080062;28;20027;-77
2022/09/01 09:13:44;;;;;;;11.88;3.65;;;512.30;2380.80;;;;;;5095065;28;20070;-74
2022/09/01 09:16:47;;;;;;;9.73;4.00;;;512.40;2380.80;;;;;;5012516;28;20058;-75
2022/09/01 09:19:19;;;;;;;8.57;3.88;;;512.60;2380.80;;;;;;4941089;29;20040;-77
2022/09/01 09:21:48;;;;;;;8.00;4.00;;;512.40;2380.80;;;;;;4954493;29;20043;-73
2022/09/01 09:24:48;;;;;;;7.40;3.90;;;512.60;2380.80;;;;;;4941248;29;20031;-73
2022/09/01 09:27:19;;;;;;;5.00;3.58;;;512.70;2380.80;;;;;;4954438;29;20516;-73
2022/09/01 09:29:52;;;;;;;9.13;4.00;;;512.90;2380.80;;;;;;4954405;29;20958;-72
2022/09/01 09:32:19;;;;;;;8.98;4.07;;;512.90;2380.80;;;;;;4954696;29;20043;-72
2022/09/01 09:34:45;;;;;;;7.28;4.15;;;537.70;2406.40;;;;;;4949585;28;20028;-73
2022/09/01 09:37:24;;;;;;;7.10;3.97;;;537.90;2406.40;;;;;;4927791;29;20058;-73
2022/09/01 09:40:10;;;;;;;8.18;3.38;;;537.90;2406.40;;;;;;4954363;29;20066;-74
2022/09/01 09:42:38;;;;;;;6.13;3.88;;;537.90;2406.40;;;;;;4954220;29;20055;-73
2022/09/01 09:45:15;;;;;;;5.22;3.10;;;538.00;2406.40;;;;;;4954132;29;20034;-78
2022/09/01 09:47:43;;;;;;;12.13;4.22;;;537.90;2406.40;;;;;;4954206;29;20184;-73
2022/09/01 09:50:31;;;;;;;9.90;4.80;;;537.90;2406.40;;;;;;4953802;29;20041;-73
2022/09/01 09:53:26;;;;;;;6.43;3.33;;;538.00;2406.40;;;;;;5012387;28;20521;-75
2022/09/01 09:56:17;;;;;;;6.10;4.28;;;538.00;2406.40;;;;;;5094349;28;20101;-77
2022/09/01 09:58:45;;;;;;;18.42;4.20;;;538.10;2406.40;;;;;;5012127;28;20029;-73
2022/09/01 10:01:24;;;;;;;7.00;3.47;;;538.30;2406.40;;;;;;5012260;28;20045;-72
2022/09/01 10:04:02;;;;;;;8.48;3.55;;;538.40;2406.40;;;;;;5010707;28;20451;-71
2022/09/01 10:06:49;;;;;;;4.95;3.35;;;538.30;2406.40;;;;;;5001290;28;20025;-79
2022/09/01 10:09:33;;;;;;;7.93;4.00;;;538.20;2406.40;;;;;;5011846;28;20115;-72
2022/09/01 10:12:01;;;;;;;9.70;4.35;;;538.00;2406.40;;;;;;5011904;28;20072;-73
2022/09/01 10:14:37;;;;;;;10.30;4.25;;;538.20;2406.40;;;;;;5012014;28;20029;-77
2022/09/01 10:17:24;;;;;;;13.23;4.63;;;538.00;2406.40;;;;;;5011540;28;20077;-72
2022/09/01 10:19:57;;;;;;;7.93;4.57;;;538.30;2406.40;;;;;;4978465;28;20022;-73
2022/09/01 10:22:24;;;;;;;6.57;4.10;;;538.40;2406.40;;;;;;5005271;28;20523;-74
2022/09/01 10:24:50;;;;;;;7.95;4.32;;;538.30;2406.40;;;;;;5011143;28;20045;-78
2022/09/01 10:27:23;;;;;;;12.40;4.45;;;538.40;2406.40;;;;;;5012173;28;20037;-78
2022/09/01 10:30:07;;;;;;;6.70;4.47;;;538.30;2406.40;;;;;;5011619;28;20032;-78
2022/09/01 10:32:46;;;;;;;12.70;5.00;;;538.40;2406.40;;;;;;5011790;28;20109;-75
2022/09/01 10:35:18;;;;;;;9.77;4.60;;;538.40;2406.40;;;;;;5035312;28;20032;-75
2022/09/01 10:37:46;;;;;;;7.65;4.40;;;538.20;2406.40;;;;;;5093727;28;20016;-74
2022/09/01 10:40:12;;;;;;;11.25;4.38;;;538.20;2406.40;;;;;;5093703;28;20035;-77
2022/09/01 10:42:43;;;;;;;8.43;4.30;;;538.30;2406.40;;;;;;5093734;28;20016;-73
2022/09/01 10:45:38;;;;;;;10.30;5.13;;;538.20;2406.40;;;;;;5093091;28;20103;-75
2022/09/01 10:48:30;;;;;;;10.75;5.03;;;538.20;2406.40;;;;;;5093147;28;20503;-76
2022/09/01 10:51:11;;;;;;;9.35;4.53;;;538.20;2406.40;;;;;;5093515;28;20018;-72
2022/09/01 10:53:54;;;;;;;9.95;5.50;;;538.20;2406.40;;;;;;5093366;28;20089;-72
2022/09/01 10:56:42;;;;;;;6.57;4.88;;;538.30;2406.40;;;;;;5093325;28;20545;-73
2022/09/01 10:59:23;;;;;;;11.85;5.57;;;538.50;2406.40;;;;;;5068407;28;20069;-72
2022/09/01 11:01:48;;;;;;;10.45;5.70;;;538.50;2406.40;;;;;;5093034;28;20436;-72
2022/09/01 11:04:19;;;;;;;11.73;5.85;;;538.40;2406.40;;;;;;5092953;28;20024;-74
2022/09/01 11:06:44;;;;;;;11.43;5.18;;;538.40;2406.40;;;;;;5093054;28;20081;-75
2022/09/01 11:09:22;;;;;;;17.48;5.65;;;538.50;2406.40;;;;;;5092989;28;20099;-74
2022/09/01 11:12:12;;;;;;;13.15;5.13;;;538.40;2406.40;;;;;;5092908;28;20066;-72
2022/09/01 11:14:53;;;;;;;10.68;4.88;;;538.40;2406.40;;;;;;5071639;28;20496;-72
2022/09/01 11:17:26;;;;;;;14.07;5.55;;;538.40;2406.40;;;;;;5092754;28;20116;-72
2022/09/01 11:20:26;;;;;;;8.25;4.35;;;538.50;2406.40;;;;;;5065359;28;20020;-76
2022/09/01 11:23:10;;;;;;;12.43;5.43;;;563.30;2432.00;;;;;;5092318;28;20024;-76
2022/09/01 11:25:43;;;;;;;12.00;5.45;;;563.30;2432.00;;;;;;5092831;28;20020;-72
2022/09/01 11:28:15;;;;;;;8.25;5.55;;;563.40;2432.00;;;;;;5092561;28;20516;-72
2022/09/01 11:31:07;;;;;;;12.57;5.65;;;563.30;2432.00;;;;;;5092777;28;20063;-72
2022/09/01 11:33:54;;;;;;;9.73;4.65;;;563.30;2432.00;;;;;;5066592;28;20024;-71
2022/09/01 11:36:35;;;;;;;9.38;4.85;;;563.50;2432.00;;;;;;5091355;28;20073;-71
2022/09/01 11:39:04;;;;;;;8.30;4.10;;;563.60;2432.00;;;;;;5092358;28;20020;-72
2022/09/01 11:41:51;;;;;;;9.68;5.50;;;563.60;2432.00;;;;;;5092517;28;20095;-73
2022/09/01 11:44:36;;;;;;;;;;;563.50;2432.00;;;;;;5091777;28;20420;-74
2022/09/01 11:47:06;;;;;;;9.43;5.78;;;563.50;2432.00;;;;;;5084285;28;19927;-72
2022/09/01 11:49:45;;;;;;;9.57;4.70;;;563.40;2432.00;;;;;;5092304;28;20016;-73
2022/09/01 11:52:15;;;;;;;6.65;4.80;;;563.40;2432.00;;;;;;5087631;28;20028;-73
2022/09/01 11:54:45;;;;;;;7.90;5.28;;;563.40;2432.00;;;;;;5095283;28;20020;-74
2022/09/01 11:57:30;;;;;;;9.50;5.05;;;563.30;2432.00;;;;;;5068655;28;20525;-73
2022/09/01 11:59:58;;;;;;;8.13;5.20;;;563.30;2432.00;;;;;;5068155;28;20025;-72
2022/09/01 12:02:29;;;;;;;7.95;5.45;;;563.40;2432.00;;;;;;5077497;28;20024;-73
2022/09/01 12:04:56;;;;;;;9.27;5.13;;;563.60;2432.00;;;;;;5069155;28;20016;-71
2022/09/01 12:07:51;;;;;;;10.52;6.30;;;538.50;2406.40;;;;;;5073796;28;20456;-73
2022/09/01 12:10:29;;;;;;;8.70;5.05;;;563.20;2432.00;;;;;;5065862;28;20044;-72
2022/09/01 12:13:30;;;;;;;6.70;4.88;;;563.30;2432.00;;;;;;5082056;28;20016;-78
2022/09/01 12:16:01;;;;;;;12.70;5.20;;;563.40;2432.00;;;;;;5046257;28;20168;-73
2022/09/01 12:18:31;;;;;;;8.75;5.35;;;563.40;2432.00;;;;;;5032473;28;20045;-73
2022/09/01 12:21:00;;;;;;;9.23;5.90;;;563.30;2432.00;;;;;;5031537;28;20099;-73
2022/09/01 12:23:35;;;;;;;10.80;5.55;;;563.30;2432.00;;;;;;5048973;28;20441;-73
2022/09/01 12:26:07;;;;;;;7.53;5.10;;;563.40;2432.00;;;;;;5045080;28;20036;-74
2022/09/01 12:28:34;;;;;;;13.95;5.40;;;563.30;2432.00;;;;;;5032428;28;20033;-72
2022/09/01 12:31:04;;;;;;;7.10;5.28;;;563.30;2432.00;;;;;;5032201;28;20033;-72
2022/09/01 12:33:32;;;;;;;9.80;5.53;;;563.30;2432.00;;;;;;5031946;28;20498;-76
2022/09/01 12:36:19;;;;;;;9.38;5.65;;;563.40;2432.00;;;;;;5048741;28;20049;-75
2022/09/01 12:38:45;;;;;;;18.65;5.82;;;563.30;2432.00;;;;;;5048859;28;20052;-74